台北 の空港の天気 - METARとTAF

台湾桃園国際空港 ( RCTP / TPE ) - 台湾 台北市
飛行場実況気象(Metar)
観測時間08/16 14:30 CST (08/16 06:30 UTC)
風向・風速西南西 8m/s
視程10km以上
天気現象
少しの雲 雲底高度 610m
全天の8割程度の雲 雲底高度 3050m
気温32℃
湿度75%
気圧999hPa
METARRCTP 160630Z 24015KT 9999 FEW020 BKN100 32/27 Q0999 NOSIG RMK A2950
過去の天気等 Google飛行場航空写真 Wunderground天気予報

過去48時間のMETAR

飛行場予報(TAF)
発表時間: 8/16 13:00 CST (8/16 05:00 UTC)
予報対象時間: 16日14時 CST ~ 17日20時 CST
風向・風速西 6m/s
視程10km以上
少しの雲 雲底高度 460m
全天の8割程度の雲 雲底高度 980m
全天の8割程度の雲 雲底高度 1830m
16日14時 CST ~ 16日18時 CST に一時的に
風向・風速西 9m/s
視程5000m
天気現象しゅう雨
全天の4割程度の雲 雲底高度 300m
全天の8割程度の雲 雲底高度 550m
全天の8割程度の雲 雲底高度 1520m
17日4時 CST ~ 17日9時 CST に一時的に
風向・風速南西 3m/s
17日14時 CST ~ 17日16時 CST に徐々に
風向・風速南南東 3m/s
TAF RCTP 160500Z 1606/1712 27012KT 9999 FEW015 BKN032 BKN060
TEMPO 1606/1610 28018KT 5000 SHRA SCT010 BKN018 BKN050
TEMPO 1620/1701 23006KT
BECMG 1706/1708 16005KT